Time;durP1;ratioP1;P1;durP2;ratioP2;P2;SDS_P1;SDS_P2;PMS_P1;PMS_P2;Temp;Humidity;BMP_temperature;BMP_pressure;BME280_temperature;BME280_humidity;BME280_pressure;Samples;Min_cycle;Max_cycle;Signal;HPM_P1;HPM_P2
2022/04/08 00:00:38;;;;;;;0.00;0.00;;;;;;;;;;5016961;28;20075;-74
2022/04/08 00:03:03;;;;;;;0.00;0.00;;;;;;;;;;5016499;28;20022;-74
2022/04/08 00:05:28;;;;;;;0.22;0.22;;;;;;;;;;5016539;28;20474;-74
2022/04/08 00:07:54;;;;;;;0.00;0.00;;;;;;;;;;5016262;28;20374;-73
2022/04/08 00:10:19;;;;;;;0.52;0.52;;;;;;;;;;5016482;28;20367;-73
2022/04/08 00:12:49;;;;;;;0.00;0.00;;;;;;;;;;5031708;28;20026;-74
2022/04/08 00:15:14;;;;;;;0.55;0.55;;;;;;;;;;5031756;28;20030;-73
2022/04/08 00:17:45;;;;;;;0.95;0.88;;;;;;;;;;5016380;28;20371;-73
2022/04/08 00:20:10;;;;;;;0.08;0.08;;;;;;;;;;5019162;28;20049;-73
2022/04/08 00:22:40;;;;;;;0.00;0.00;;;;;;;;;;5036986;28;20068;-73
2022/04/08 00:25:07;;;;;;;0.00;0.00;;;;;;;;;;5016216;28;20033;-73
2022/04/08 00:27:32;;;;;;;0.10;0.10;;;;;;;;;;5015868;28;20044;-73
2022/04/08 00:29:58;;;;;;;0.10;0.10;;;;;;;;;;5015889;28;20022;-73
2022/04/08 00:32:24;;;;;;;0.00;0.00;;;;;;;;;;5016219;28;20026;-73
2022/04/08 00:34:49;;;;;;;0.10;0.10;;;;;;;;;;5014416;28;20034;-74
2022/04/08 00:37:14;;;;;;;0.05;0.05;;;;;;;;;;5015916;28;20040;-73
2022/04/08 00:39:40;;;;;;;0.30;0.30;;;;;;;;;;5015579;28;20455;-73
2022/04/08 00:42:06;;;;;;;0.43;0.43;;;;;;;;;;5016112;28;20033;-73
2022/04/08 00:44:31;;;;;;;0.15;0.15;;;;;;;;;;5015725;28;20030;-74
2022/04/08 00:46:57;;;;;;;0.38;0.38;;;;;;;;;;5015891;28;20030;-74
2022/04/08 00:49:22;;;;;;;0.00;0.00;;;;;;;;;;5015607;28;20470;-74
2022/04/08 00:51:47;;;;;;;0.00;0.00;;;;;;;;;;5015896;28;20439;-74
2022/04/08 00:54:13;;;;;;;0.47;0.47;;;;;;;;;;5015541;28;20125;-74
2022/04/08 00:56:43;;;;;;;0.25;0.25;;;;;;;;;;5015816;28;20351;-74
2022/04/08 00:59:08;;;;;;;0.00;0.00;;;;;;;;;;5014494;28;20099;-74
2022/04/08 01:01:34;;;;;;;0.03;0.03;;;;;;;;;;5030990;28;20112;-74
2022/04/08 01:04:02;;;;;;;5.47;1.00;;;;;;;;;;5015517;28;20057;-74
2022/04/08 01:06:30;;;;;;;0.00;0.00;;;;;;;;;;5016341;28;20486;-74
2022/04/08 01:08:55;;;;;;;3.03;0.63;;;;;;;;;;5015182;28;20124;-73
2022/04/08 01:11:21;;;;;;;0.13;0.13;;;;;;;;;;5014944;28;20110;-73
2022/04/08 01:13:46;;;;;;;0.50;0.50;;;;;;;;;;5015954;28;20112;-73
2022/04/08 01:16:12;;;;;;;0.20;0.20;;;;;;;;;;5015064;28;20091;-74
2022/04/08 01:18:38;;;;;;;0.00;0.00;;;;;;;;;;5015040;28;20033;-73
2022/04/08 01:21:05;;;;;;;0.10;0.10;;;;;;;;;;5015193;28;20026;-74
2022/04/08 01:23:32;;;;;;;0.10;0.10;;;;;;;;;;5015312;28;20018;-74
2022/04/08 01:26:00;;;;;;;0.63;0.63;;;;;;;;;;5014372;28;20116;-73
2022/04/08 01:28:26;;;;;;;0.03;0.03;;;;;;;;;;5015282;28;20022;-73
2022/04/08 01:30:51;;;;;;;0.00;0.00;;;;;;;;;;5017903;28;20169;-74
2022/04/08 01:33:17;;;;;;;0.93;0.82;;;;;;;;;;5032093;28;20634;-74
2022/04/08 01:35:42;;;;;;;0.52;0.35;;;;;;;;;;5014725;28;20026;-75
2022/04/08 01:38:12;;;;;;;0.30;0.30;;;;;;;;;;5014735;28;20025;-78
2022/04/08 01:40:38;;;;;;;1.65;1.45;;;;;;;;;;5025742;28;20045;-73
2022/04/08 01:43:03;;;;;;;1.83;0.38;;;;;;;;;;5014951;28;20450;-73
2022/04/08 01:45:28;;;;;;;0.10;0.10;;;;;;;;;;5015632;28;20079;-73
2022/04/08 01:47:54;;;;;;;0.10;0.10;;;;;;;;;;5015616;28;20029;-74
2022/04/08 01:50:20;;;;;;;0.00;0.00;;;;;;;;;;5014196;28;20025;-74
2022/04/08 01:52:49;;;;;;;0.17;0.17;;;;;;;;;;5014682;28;20060;-74
2022/04/08 01:55:15;;;;;;;0.25;0.25;;;;;;;;;;5013584;28;20026;-74
2022/04/08 01:57:43;;;;;;;0.10;0.10;;;;;;;;;;5029908;28;20406;-74
2022/04/08 02:00:11;;;;;;;0.00;0.00;;;;;;;;;;5013919;28;20018;-74
2022/04/08 02:02:37;;;;;;;0.10;0.10;;;;;;;;;;5011838;28;20026;-74
2022/04/08 02:05:03;;;;;;;1.00;0.85;;;;;;;;;;5029457;28;20014;-74
2022/04/08 02:07:28;;;;;;;0.00;0.00;;;;;;;;;;5014882;28;20096;-73
2022/04/08 02:09:54;;;;;;;0.00;0.00;;;;;;;;;;5014178;28;20022;-74
2022/04/08 02:12:20;;;;;;;0.03;0.03;;;;;;;;;;5013308;28;20065;-73
2022/04/08 02:14:45;;;;;;;0.65;0.63;;;;;;;;;;5013849;28;20057;-74
2022/04/08 02:17:10;;;;;;;0.10;0.10;;;;;;;;;;5014326;28;20466;-73
2022/04/08 02:19:39;;;;;;;0.52;0.52;;;;;;;;;;5017330;28;20030;-75
2022/04/08 02:22:05;;;;;;;0.00;0.00;;;;;;;;;;5015439;28;20029;-74
2022/04/08 02:24:31;;;;;;;0.47;0.47;;;;;;;;;;5013145;28;20053;-74
2022/04/08 02:26:57;;;;;;;0.65;0.52;;;;;;;;;;5012673;28;20073;-74
2022/04/08 02:29:22;;;;;;;0.10;0.10;;;;;;;;;;5029500;28;20053;-72
2022/04/08 02:31:48;;;;;;;0.00;0.00;;;;;;;;;;5013731;28;20439;-72
2022/04/08 02:34:13;;;;;;;0.13;0.13;;;;;;;;;;5014327;28;20038;-72
2022/04/08 02:36:38;;;;;;;1.55;1.17;;;;;;;;;;5018378;28;20495;-72
2022/04/08 02:39:04;;;;;;;0.00;0.00;;;;;;;;;;5013726;28;20037;-71
2022/04/08 02:41:29;;;;;;;0.00;0.00;;;;;;;;;;5013977;28;20018;-71
2022/04/08 02:43:55;;;;;;;0.00;0.00;;;;;;;;;;5012876;28;20029;-72
2022/04/08 02:46:20;;;;;;;0.00;0.00;;;;;;;;;;5012984;28;20044;-71
2022/04/08 02:48:48;;;;;;;0.10;0.10;;;;;;;;;;4996004;28;20034;-71
2022/04/08 02:51:13;;;;;;;0.85;0.43;;;;;;;;;;5013384;28;20104;-71
2022/04/08 02:53:39;;;;;;;0.10;0.10;;;;;;;;;;5021026;28;20443;-72
2022/04/08 02:56:06;;;;;;;0.00;0.00;;;;;;;;;;5017827;28;20042;-72
2022/04/08 02:58:32;;;;;;;0.90;0.55;;;;;;;;;;5017674;28;20096;-71
2022/04/08 03:00:59;;;;;;;0.00;0.00;;;;;;;;;;5018165;28;20025;-72
2022/04/08 03:03:26;;;;;;;0.00;0.00;;;;;;;;;;5017808;28;20029;-71
2022/04/08 03:05:55;;;;;;;0.35;0.35;;;;;;;;;;5016800;28;20084;-72
2022/04/08 03:08:20;;;;;;;0.00;0.00;;;;;;;;;;5017032;28;20034;-72
2022/04/08 03:10:46;;;;;;;0.00;0.00;;;;;;;;;;4997070;28;20443;-72
2022/04/08 03:13:12;;;;;;;0.00;0.00;;;;;;;;;;5018329;28;20061;-72
2022/04/08 03:15:38;;;;;;;1.75;1.10;;;;;;;;;;5017427;28;20033;-72
2022/04/08 03:18:06;;;;;;;0.00;0.00;;;;;;;;;;5016940;28;20037;-72
2022/04/08 03:20:32;;;;;;;0.30;0.25;;;;;;;;;;5030166;28;20087;-72
2022/04/08 03:22:57;;;;;;;2.08;1.10;;;;;;;;;;5016691;28;20515;-72
2022/04/08 03:25:23;;;;;;;0.13;0.13;;;;;;;;;;5017226;28;20026;-72
2022/04/08 03:27:48;;;;;;;0.00;0.00;;;;;;;;;;5017196;28;20478;-72
2022/04/08 03:30:16;;;;;;;0.00;0.00;;;;;;;;;;5017131;28;20343;-72
2022/04/08 03:32:41;;;;;;;0.43;0.25;;;;;;;;;;5016898;28;20029;-72
2022/04/08 03:35:10;;;;;;;1.83;1.60;;;;;;;;;;5032598;28;20048;-72
2022/04/08 03:37:35;;;;;;;0.30;0.30;;;;;;;;;;5016920;28;20037;-72
2022/04/08 03:40:03;;;;;;;0.45;0.45;;;;;;;;;;5020310;28;20036;-72
2022/04/08 03:42:30;;;;;;;0.38;0.38;;;;;;;;;;5017763;28;20026;-72
2022/04/08 03:44:58;;;;;;;0.35;0.35;;;;;;;;;;5016877;28;20032;-72
2022/04/08 03:47:23;;;;;;;1.65;0.70;;;;;;;;;;5016770;28;20029;-72
2022/04/08 03:49:48;;;;;;;0.00;0.00;;;;;;;;;;5016535;28;20100;-73
2022/04/08 03:52:14;;;;;;;0.40;0.40;;;;;;;;;;5016450;28;20041;-72
2022/04/08 03:54:39;;;;;;;0.05;0.05;;;;;;;;;;5032048;28;20026;-73
2022/04/08 03:57:05;;;;;;;1.02;1.00;;;;;;;;;;5032142;28;20095;-74
2022/04/08 03:59:31;;;;;;;0.10;0.10;;;;;;;;;;5031857;28;20052;-73
2022/04/08 04:01:56;;;;;;;0.30;0.30;;;;;;;;;;5013961;28;20052;-72
2022/04/08 04:04:21;;;;;;;0.45;0.38;;;;;;;;;;5013392;28;20041;-72
2022/04/08 04:06:47;;;;;;;0.03;0.03;;;;;;;;;;5015558;28;20021;-72
2022/04/08 04:09:12;;;;;;;0.35;0.10;;;;;;;;;;5015362;28;20462;-72
2022/04/08 04:11:40;;;;;;;0.10;0.10;;;;;;;;;;5015869;28;20574;-72
2022/04/08 04:14:06;;;;;;;0.10;0.10;;;;;;;;;;5037183;28;20382;-72
2022/04/08 04:16:32;;;;;;;0.17;0.17;;;;;;;;;;5015979;28;20446;-72
2022/04/08 04:18:58;;;;;;;0.00;0.00;;;;;;;;;;5016253;28;20045;-72
2022/04/08 04:21:25;;;;;;;0.43;0.32;;;;;;;;;;5015883;28;20018;-72
2022/04/08 04:23:51;;;;;;;0.38;0.38;;;;;;;;;;5015146;28;20025;-71
2022/04/08 04:26:18;;;;;;;0.10;0.10;;;;;;;;;;5016003;28;20075;-72
2022/04/08 04:28:44;;;;;;;0.22;0.22;;;;;;;;;;5014911;28;20022;-73
2022/04/08 04:31:09;;;;;;;0.00;0.00;;;;;;;;;;5015893;28;20026;-74
2022/04/08 04:33:37;;;;;;;0.20;0.20;;;;;;;;;;5019304;28;20025;-73
2022/04/08 04:36:02;;;;;;;0.00;0.00;;;;;;;;;;5016722;28;20030;-72
2022/04/08 04:38:30;;;;;;;0.50;0.20;;;;;;;;;;5015525;28;20176;-71
2022/04/08 04:40:55;;;;;;;0.25;0.25;;;;;;;;;;5017588;28;20118;-72
2022/04/08 04:43:20;;;;;;;0.00;0.00;;;;;;;;;;5020454;28;20053;-73
2022/04/08 04:45:46;;;;;;;0.70;0.50;;;;;;;;;;5015563;28;20447;-72
2022/04/08 04:48:11;;;;;;;0.30;0.30;;;;;;;;;;5016036;28;20029;-74
2022/04/08 04:50:39;;;;;;;0.85;0.30;;;;;;;;;;5015765;28;20041;-72
2022/04/08 04:53:06;;;;;;;0.38;0.38;;;;;;;;;;5015842;28;20026;-72
2022/04/08 04:55:31;;;;;;;0.10;0.10;;;;;;;;;;5015730;28;20048;-72
2022/04/08 04:57:57;;;;;;;0.00;0.00;;;;;;;;;;5015869;28;20018;-71
2022/04/08 05:00:22;;;;;;;0.00;0.00;;;;;;;;;;5030968;28;20025;-72
2022/04/08 05:02:49;;;;;;;0.00;0.00;;;;;;;;;;5026175;28;20014;-73
2022/04/08 05:05:14;;;;;;;0.52;0.52;;;;;;;;;;5015582;28;20136;-73
2022/04/08 05:07:44;;;;;;;0.30;0.30;;;;;;;;;;5015424;28;20522;-71
2022/04/08 05:10:10;;;;;;;2.20;1.35;;;;;;;;;;5024101;28;20040;-72
2022/04/08 05:12:38;;;;;;;4.20;1.20;;;;;;;;;;5016022;28;20026;-72
2022/04/08 05:15:06;;;;;;;0.10;0.10;;;;;;;;;;5015253;28;20034;-72
2022/04/08 05:17:35;;;;;;;0.35;0.35;;;;;;;;;;5015120;28;20386;-72
2022/04/08 05:20:05;;;;;;;0.08;0.08;;;;;;;;;;5024491;28;20344;-72
2022/04/08 05:22:30;;;;;;;0.00;0.00;;;;;;;;;;5014428;28;20474;-74
2022/04/08 05:24:57;;;;;;;0.00;0.00;;;;;;;;;;5014735;28;20026;-73
2022/04/08 05:27:23;;;;;;;0.20;0.20;;;;;;;;;;5012326;28;20032;-72
2022/04/08 05:29:48;;;;;;;0.17;0.17;;;;;;;;;;5014934;28;20105;-73
2022/04/08 05:32:15;;;;;;;1.23;1.13;;;;;;;;;;5014023;28;20351;-72
2022/04/08 05:34:43;;;;;;;0.32;0.32;;;;;;;;;;5014738;28;20021;-73
2022/04/08 05:37:09;;;;;;;0.00;0.00;;;;;;;;;;5015140;28;20586;-72
2022/04/08 05:39:34;;;;;;;0.82;0.45;;;;;;;;;;5015158;28;20176;-72
2022/04/08 05:41:59;;;;;;;0.30;0.30;;;;;;;;;;5014954;28;20026;-72
2022/04/08 05:44:25;;;;;;;0.00;0.00;;;;;;;;;;5012580;28;20050;-74
2022/04/08 05:46:53;;;;;;;0.15;0.15;;;;;;;;;;5028107;28;20427;-75
2022/04/08 05:49:18;;;;;;;0.75;0.75;;;;;;;;;;5014618;28;20022;-74
2022/04/08 05:51:45;;;;;;;0.93;0.57;;;;;;;;;;5014529;28;20018;-74
2022/04/08 05:54:13;;;;;;;0.82;0.82;;;;;;;;;;5017122;28;20038;-74
2022/04/08 05:56:44;;;;;;;0.30;0.30;;;;;;;;;;5012679;28;20030;-75
2022/04/08 05:59:09;;;;;;;0.03;0.03;;;;;;;;;;5013190;28;20030;-74
2022/04/08 06:01:35;;;;;;;0.00;0.00;;;;;;;;;;5014535;28;20068;-74
2022/04/08 06:04:02;;;;;;;0.35;0.35;;;;;;;;;;5014695;28;20037;-74
2022/04/08 06:06:28;;;;;;;1.17;0.75;;;;;;;;;;5014693;28;20022;-74
2022/04/08 06:08:53;;;;;;;1.27;0.90;;;;;;;;;;5014263;28;20044;-73
2022/04/08 06:11:18;;;;;;;0.55;0.55;;;;;;;;;;5014295;28;20041;-71
2022/04/08 06:13:44;;;;;;;0.77;0.68;;;;;;;;;;5020687;28;20057;-78
2022/04/08 06:16:09;;;;;;;0.20;0.20;;;;;;;;;;5012538;28;20434;-78
2022/04/08 06:18:35;;;;;;;0.60;0.60;;;;;;;;;;5014826;28;20501;-78
2022/04/08 06:21:01;;;;;;;0.15;0.15;;;;;;;;;;5014734;28;20493;-79
2022/04/08 06:23:26;;;;;;;0.32;0.32;;;;;;;;;;5014523;28;20106;-78
2022/04/08 06:25:52;;;;;;;0.10;0.10;;;;;;;;;;5029049;28;20523;-77
2022/04/08 06:28:18;;;;;;;0.00;0.00;;;;;;;;;;5014668;28;20052;-78
2022/04/08 06:30:45;;;;;;;0.15;0.15;;;;;;;;;;5013484;28;20018;-77
2022/04/08 06:33:10;;;;;;;0.20;0.20;;;;;;;;;;5014744;28;20029;-77
2022/04/08 06:35:36;;;;;;;0.22;0.22;;;;;;;;;;5014519;28;20026;-77
2022/04/08 06:38:06;;;;;;;8.77;0.73;;;;;;;;;;5014199;28;20030;-77
2022/04/08 06:40:50;;;;;;;0.13;0.13;;;;;;;;;;5013872;28;20034;-76
2022/04/08 06:43:17;;;;;;;0.00;0.00;;;;;;;;;;5003934;28;20112;-77
2022/04/08 06:45:45;;;;;;;0.00;0.00;;;;;;;;;;5013725;28;20026;-77
2022/04/08 06:48:10;;;;;;;0.00;0.00;;;;;;;;;;5013848;28;20029;-76
2022/04/08 06:50:36;;;;;;;1.17;1.08;;;;;;;;;;5014498;28;20021;-77
2022/04/08 06:53:02;;;;;;;4.18;0.50;;;;;;;;;;4996174;28;20018;-76
2022/04/08 06:55:28;;;;;;;0.20;0.20;;;;;;;;;;5013393;28;20033;-78
2022/04/08 06:57:54;;;;;;;0.52;0.52;;;;;;;;;;5012670;28;20455;-78
2022/04/08 07:00:21;;;;;;;0.00;0.00;;;;;;;;;;5014461;28;20068;-77
2022/04/08 07:02:46;;;;;;;0.38;0.32;;;;;;;;;;5016657;28;20113;-76
2022/04/08 07:05:11;;;;;;;0.28;0.28;;;;;;;;;;5012647;28;20104;-78
2022/04/08 07:07:40;;;;;;;0.10;0.10;;;;;;;;;;5012643;28;20439;-76
2022/04/08 07:10:06;;;;;;;1.20;1.08;;;;;;;;;;5013599;28;20118;-78
2022/04/08 07:12:32;;;;;;;0.25;0.22;;;;;;;;;;5013883;28;20088;-77
2022/04/08 07:14:59;;;;;;;1.05;0.70;;;;;;;;;;5013768;28;20025;-78
2022/04/08 07:17:32;;;;;;;0.10;0.10;;;;;;;;;;5006785;28;20046;-77
2022/04/08 07:19:57;;;;;;;;;;;;;;;;;;4997830;28;20083;-77
2022/04/08 07:22:23;;;;;;;1.40;1.30;;;;;;;;;;5029201;28;19913;-78
2022/04/08 07:24:50;;;;;;;10.57;1.15;;;;;;;;;;5011804;28;20023;-77
2022/04/08 07:27:16;;;;;;;1.35;1.13;;;;;;;;;;5012980;28;20038;-77
2022/04/08 07:29:41;;;;;;;1.75;0.57;;;;;;;;;;5012885;28;20034;-78
2022/04/08 07:32:10;;;;;;;0.13;0.13;;;;;;;;;;5013161;28;20077;-78
2022/04/08 07:34:36;;;;;;;0.85;0.85;;;;;;;;;;5014168;28;20101;-78
2022/04/08 07:37:04;;;;;;;0.32;0.32;;;;;;;;;;5014124;28;20521;-78
2022/04/08 07:39:32;;;;;;;1.52;1.42;;;;;;;;;;5002866;28;20033;-77
2022/04/08 07:41:57;;;;;;;0.85;0.85;;;;;;;;;;5016752;28;20030;-78
2022/04/08 07:44:23;;;;;;;0.22;0.22;;;;;;;;;;5017173;28;20044;-79
2022/04/08 07:46:48;;;;;;;0.45;0.45;;;;;;;;;;5016769;28;20113;-80
2022/04/08 07:49:13;;;;;;;1.85;1.25;;;;;;;;;;5017517;28;20030;-78
2022/04/08 07:51:39;;;;;;;0.95;0.95;;;;;;;;;;5017075;28;20105;-77
2022/04/08 07:54:04;;;;;;;0.75;0.75;;;;;;;;;;5016799;28;20025;-78
2022/04/08 07:56:33;;;;;;;5.80;2.47;;;;;;;;;;5032448;28;20117;-77
2022/04/08 07:58:58;;;;;;;8.07;0.82;;;;;;;;;;5016701;28;20030;-79
2022/04/08 08:01:24;;;;;;;0.40;0.40;;;;;;;;;;5010502;28;20079;-79
2022/04/08 08:03:52;;;;;;;1.85;1.27;;;;;;;;;;5010645;28;20101;-78
2022/04/08 08:06:17;;;;;;;0.60;0.60;;;;;;;;;;5014835;28;20029;-78
2022/04/08 08:08:44;;;;;;;0.95;0.95;;;;;;;;;;5015714;28;20335;-78
2022/04/08 08:11:13;;;;;;;0.17;0.17;;;;;;;;;;5013968;28;20116;-79
2022/04/08 08:13:38;;;;;;;0.20;0.03;;;;;;;;;;5006761;28;20033;-78
2022/04/08 08:16:06;;;;;;;3.05;1.30;;;;;;;;;;5030295;28;20026;-79
2022/04/08 08:18:31;;;;;;;0.50;0.40;;;;;;;;;;5016139;28;20013;-79
2022/04/08 08:21:01;;;;;;;2.50;1.42;;;;;;;;;;5016549;28;20022;-78
2022/04/08 08:23:27;;;;;;;0.88;0.82;;;;;;;;;;5015375;28;20343;-80
2022/04/08 08:25:53;;;;;;;0.90;0.63;;;;;;;;;;5016456;28;20018;-80
2022/04/08 08:28:18;;;;;;;0.68;0.68;;;;;;;;;;5016081;28;20351;-78
2022/04/08 08:30:45;;;;;;;0.32;0.32;;;;;;;;;;5016365;28;20032;-78
2022/04/08 08:33:18;;;;;;;1.00;0.68;;;;;;;;;;5016304;28;20141;-78
2022/04/08 08:35:46;;;;;;;1.70;0.63;;;;;;;;;;5016239;28;20033;-78
2022/04/08 08:38:11;;;;;;;0.30;0.30;;;;;;;;;;5015973;28;20462;-78
2022/04/08 08:40:36;;;;;;;0.63;0.63;;;;;;;;;;5032637;28;20044;-77
2022/04/08 08:43:02;;;;;;;1.52;0.30;;;;;;;;;;5015990;28;20062;-76
2022/04/08 08:45:33;;;;;;;0.40;0.40;;;;;;;;;;5015897;28;20025;-78
2022/04/08 08:48:03;;;;;;;12.80;0.85;;;;;;;;;;5016053;28;20394;-77
2022/04/08 08:50:29;;;;;;;3.22;1.13;;;;;;;;;;5030738;28;20026;-77
2022/04/08 08:53:00;;;;;;;0.45;0.45;;;;;;;;;;5013590;28;20029;-77
2022/04/08 08:55:25;;;;;;;0.30;0.30;;;;;;;;;;5006398;28;20029;-77
2022/04/08 08:57:56;;;;;;;0.50;0.43;;;;;;;;;;5015156;28;20026;-77
2022/04/08 09:00:23;;;;;;;0.70;0.57;;;;;;;;;;5009238;28;20026;-76
2022/04/08 09:02:49;;;;;;;0.20;0.20;;;;;;;;;;5014851;28;20029;-76
2022/04/08 09:05:15;;;;;;;0.40;0.35;;;;;;;;;;5015788;28;20030;-77
2022/04/08 09:07:43;;;;;;;0.50;0.50;;;;;;;;;;5014818;28;20113;-78
2022/04/08 09:10:09;;;;;;;0.13;0.13;;;;;;;;;;5012105;28;20093;-77
2022/04/08 09:12:34;;;;;;;0.60;0.47;;;;;;;;;;5019350;28;20108;-78
2022/04/08 09:15:01;;;;;;;1.00;0.75;;;;;;;;;;5013082;28;20444;-77
2022/04/08 09:17:28;;;;;;;0.50;0.50;;;;;;;;;;5015563;28;20056;-78
2022/04/08 09:19:55;;;;;;;0.70;0.63;;;;;;;;;;5015224;28;20037;-78
2022/04/08 09:22:21;;;;;;;0.38;0.22;;;;;;;;;;5015532;28;20309;-78
2022/04/08 09:24:51;;;;;;;1.02;0.93;;;;;;;;;;5014512;28;20109;-77
2022/04/08 09:27:17;;;;;;;0.10;0.10;;;;;;;;;;5015380;28;20108;-78
2022/04/08 09:29:43;;;;;;;0.80;0.75;;;;;;;;;;5008631;28;20053;-78
2022/04/08 09:32:10;;;;;;;0.52;0.52;;;;;;;;;;5014558;28;20030;-77
2022/04/08 09:34:36;;;;;;;0.47;0.25;;;;;;;;;;5014770;28;20374;-77
2022/04/08 09:37:15;;;;;;;0.20;0.20;;;;;;;;;;5015094;28;20331;-78
2022/04/08 09:40:00;;;;;;;0.15;0.15;;;;;;;;;;5009635;28;20075;-78
2022/04/08 09:42:49;;;;;;;0.47;0.47;;;;;;;;;;5030908;28;20030;-77
2022/04/08 09:45:26;;;;;;;2.97;0.90;;;;;;;;;;5014955;28;20092;-78
2022/04/08 09:47:53;;;;;;;2.67;0.73;;;;;;;;;;5014270;28;20022;-78
2022/04/08 09:50:19;;;;;;;0.80;0.80;;;;;;;;;;5015536;28;20049;-78
2022/04/08 09:52:47;;;;;;;0.10;0.10;;;;;;;;;;5014967;28;20360;-77
2022/04/08 09:55:15;;;;;;;0.28;0.28;;;;;;;;;;5011970;28;20021;-78
2022/04/08 09:57:41;;;;;;;0.00;0.00;;;;;;;;;;5013808;28;20022;-77
2022/04/08 10:00:07;;;;;;;1.35;0.80;;;;;;;;;;5014879;28;20025;-79
2022/04/08 10:02:39;;;;;;;0.22;0.17;;;;;;;;;;5013194;28;20021;-78
2022/04/08 10:05:09;;;;;;;0.10;0.10;;;;;;;;;;5014611;28;20121;-78
2022/04/08 10:07:35;;;;;;;0.43;0.40;;;;;;;;;;5009253;28;20451;-78
2022/04/08 10:10:33;;;;;;;0.75;0.75;;;;;;;;;;5017331;28;20029;-79
2022/04/08 10:13:14;;;;;;;0.10;0.10;;;;;;;;;;5029723;28;20034;-77
2022/04/08 10:15:43;;;;;;;0.10;0.10;;;;;;;;;;5013814;28;20025;-78
2022/04/08 10:18:11;;;;;;;0.10;0.10;;;;;;;;;;5009375;28;20026;-77
2022/04/08 10:20:37;;;;;;;0.88;0.65;;;;;;;;;;5030322;28;20029;-78
2022/04/08 10:23:08;;;;;;;0.10;0.10;;;;;;;;;;5014386;28;20455;-78
2022/04/08 10:25:36;;;;;;;0.38;0.38;;;;;;;;;;5014430;28;20455;-78
2022/04/08 10:28:02;;;;;;;0.35;0.35;;;;;;;;;;5014618;28;20030;-78
2022/04/08 10:30:30;;;;;;;3.75;0.47;;;;;;;;;;4994376;28;20037;-78
2022/04/08 10:32:59;;;;;;;0.28;0.20;;;;;;;;;;5030317;28;20104;-77
2022/04/08 10:35:27;;;;;;;0.60;0.60;;;;;;;;;;5014326;28;20048;-77
2022/04/08 10:38:04;;;;;;;0.20;0.20;;;;;;;;;;5012943;28;20030;-78
2022/04/08 10:40:34;;;;;;;0.77;0.63;;;;;;;;;;5012629;28;20450;-76
2022/04/08 10:43:13;;;;;;;0.00;0.00;;;;;;;;;;5014980;28;20525;-77
2022/04/08 10:46:03;;;;;;;0.00;0.00;;;;;;;;;;5011097;28;20037;-77
2022/04/08 10:48:34;;;;;;;0.40;0.40;;;;;;;;;;5010845;28;20092;-77
2022/04/08 10:51:13;;;;;;;0.80;0.80;;;;;;;;;;5012030;28;20034;-78
2022/04/08 10:53:44;;;;;;;0.00;0.00;;;;;;;;;;5013214;28;20052;-77
2022/04/08 10:56:14;;;;;;;0.45;0.45;;;;;;;;;;5011593;28;20025;-76
2022/04/08 10:58:43;;;;;;;0.10;0.10;;;;;;;;;;5013774;28;20026;-76
2022/04/08 11:01:19;;;;;;;0.00;0.00;;;;;;;;;;5018409;28;20083;-77
2022/04/08 11:04:05;;;;;;;0.10;0.10;;;;;;;;;;5013679;28;20045;-77
2022/04/08 11:06:35;;;;;;;0.00;0.00;;;;;;;;;;5013690;28;20379;-76
2022/04/08 11:09:12;;;;;;;0.10;0.10;;;;;;;;;;5013198;28;20045;-76
2022/04/08 11:11:44;;;;;;;0.40;0.40;;;;;;;;;;5013960;28;20520;-77
2022/04/08 11:14:10;;;;;;;0.20;0.20;;;;;;;;;;5014734;28;20432;-77
2022/04/08 11:16:40;;;;;;;0.00;0.00;;;;;;;;;;5031905;28;20489;-77
2022/04/08 11:19:07;;;;;;;0.00;0.00;;;;;;;;;;5017064;28;20048;-77
2022/04/08 11:21:41;;;;;;;0.00;0.00;;;;;;;;;;5016524;28;20440;-77
2022/04/08 11:24:07;;;;;;;0.20;0.20;;;;;;;;;;5015571;28;20040;-77
2022/04/08 11:26:48;;;;;;;0.32;0.32;;;;;;;;;;5016343;28;20069;-76
2022/04/08 11:29:21;;;;;;;0.10;0.10;;;;;;;;;;5016706;28;20025;-76
2022/04/08 11:31:48;;;;;;;0.00;0.00;;;;;;;;;;5018420;28;20044;-77
2022/04/08 11:34:13;;;;;;;0.10;0.10;;;;;;;;;;5012698;28;20025;-77
2022/04/08 11:36:42;;;;;;;0.00;0.00;;;;;;;;;;5014481;28;20478;-78
2022/04/08 11:39:08;;;;;;;0.22;0.22;;;;;;;;;;5016753;28;20332;-76
2022/04/08 11:41:35;;;;;;;0.57;0.25;;;;;;;;;;5007562;28;20432;-77
2022/04/08 11:44:03;;;;;;;0.20;0.10;;;;;;;;;;5018272;28;20041;-76
2022/04/08 11:46:31;;;;;;;0.70;0.47;;;;;;;;;;5022521;28;20034;-76
2022/04/08 11:48:56;;;;;;;0.68;0.68;;;;;;;;;;5009079;28;20482;-76
2022/04/08 11:51:22;;;;;;;0.45;0.40;;;;;;;;;;5014343;28;20034;-76
2022/04/08 11:53:53;;;;;;;0.20;0.20;;;;;;;;;;5031123;28;20103;-76
2022/04/08 11:56:26;;;;;;;0.00;0.00;;;;;;;;;;5015610;28;20026;-78
2022/04/08 11:59:21;;;;;;;0.32;0.30;;;;;;;;;;4998951;28;20449;-79
2022/04/08 12:01:47;;;;;;;0.08;0.08;;;;;;;;;;4985977;28;20038;-78
2022/04/08 12:04:12;;;;;;;0.00;0.00;;;;;;;;;;5020014;28;20030;-78
2022/04/08 12:06:43;;;;;;;0.20;0.10;;;;;;;;;;5016491;28;20033;-79
2022/04/08 12:09:12;;;;;;;1.00;0.40;;;;;;;;;;5015850;28;20439;-78
2022/04/08 12:11:39;;;;;;;0.20;0.20;;;;;;;;;;5016169;28;20060;-75
2022/04/08 12:14:09;;;;;;;0.32;0.32;;;;;;;;;;5015593;28;20076;-75
2022/04/08 12:16:38;;;;;;;0.00;0.00;;;;;;;;;;5024829;28;20029;-76
2022/04/08 12:19:04;;;;;;;0.20;0.20;;;;;;;;;;5015155;28;20428;-76
2022/04/08 12:21:30;;;;;;;0.00;0.00;;;;;;;;;;5020832;28;20091;-77
2022/04/08 12:23:58;;;;;;;0.15;0.10;;;;;;;;;;5014700;28;20474;-77
2022/04/08 12:26:28;;;;;;;0.65;0.57;;;;;;;;;;5015547;28;20030;-77
2022/04/08 12:29:13;;;;;;;0.10;0.10;;;;;;;;;;5014905;28;20036;-76
2022/04/08 12:31:50;;;;;;;0.25;0.17;;;;;;;;;;5012454;28;20018;-77
2022/04/08 12:34:38;;;;;;;0.90;0.68;;;;;;;;;;5008858;28;20041;-79
2022/04/08 12:37:12;;;;;;;0.30;0.30;;;;;;;;;;4974521;28;20043;-76
2022/04/08 12:39:38;;;;;;;0.55;0.52;;;;;;;;;;5012524;28;20470;-75
2022/04/08 12:42:06;;;;;;;0.38;0.38;;;;;;;;;;5015692;28;20105;-76
2022/04/08 12:44:31;;;;;;;0.20;0.20;;;;;;;;;;5014903;28;20100;-76
2022/04/08 12:46:56;;;;;;;0.05;0.00;;;;;;;;;;5012305;28;20476;-75
2022/04/08 12:49:22;;;;;;;0.03;0.03;;;;;;;;;;5016032;28;20057;-77
2022/04/08 12:51:47;;;;;;;0.03;0.03;;;;;;;;;;5016129;28;20026;-76
2022/04/08 12:54:13;;;;;;;0.00;0.00;;;;;;;;;;5015241;28;20398;-77
2022/04/08 12:56:39;;;;;;;0.63;0.25;;;;;;;;;;5015064;28;20533;-76
2022/04/08 12:59:04;;;;;;;0.13;0.13;;;;;;;;;;4999828;28;20021;-77
2022/04/08 13:01:30;;;;;;;0.20;0.20;;;;;;;;;;5014749;28;20049;-76
2022/04/08 13:03:56;;;;;;;0.08;0.08;;;;;;;;;;5013270;28;20057;-77
2022/04/08 13:06:21;;;;;;;0.10;0.10;;;;;;;;;;5012200;28;20030;-75
2022/04/08 13:08:47;;;;;;;0.10;0.10;;;;;;;;;;5015156;28;20045;-76
2022/04/08 13:11:15;;;;;;;0.05;0.05;;;;;;;;;;5015622;28;20038;-76
2022/04/08 13:13:40;;;;;;;0.03;0.03;;;;;;;;;;5015607;28;20104;-78
2022/04/08 13:16:05;;;;;;;0.00;0.00;;;;;;;;;;5015194;28;20117;-76
2022/04/08 13:18:31;;;;;;;0.10;0.10;;;;;;;;;;5015459;28;20046;-76
2022/04/08 13:20:59;;;;;;;0.00;0.00;;;;;;;;;;5015463;28;20099;-76
2022/04/08 13:23:24;;;;;;;1.02;0.77;;;;;;;;;;5014710;28;20037;-77
2022/04/08 13:25:52;;;;;;;0.43;0.20;;;;;;;;;;5013212;28;20100;-77
2022/04/08 13:28:19;;;;;;;0.63;0.40;;;;;;;;;;5014201;28;20021;-76
2022/04/08 13:30:44;;;;;;;0.13;0.13;;;;;;;;;;5009467;28;20073;-76
2022/04/08 13:33:12;;;;;;;0.00;0.00;;;;;;;;;;5013202;28;20062;-77
2022/04/08 13:35:37;;;;;;;0.00;0.00;;;;;;;;;;5014410;28;20335;-76
2022/04/08 13:38:03;;;;;;;0.22;0.05;;;;;;;;;;5012836;28;20447;-77
2022/04/08 13:40:30;;;;;;;0.00;0.00;;;;;;;;;;5009062;28;20026;-76
2022/04/08 13:42:58;;;;;;;0.00;0.00;;;;;;;;;;5014337;28;20033;-76
2022/04/08 13:45:24;;;;;;;0.15;0.15;;;;;;;;;;5010854;28;20019;-76
2022/04/08 13:47:50;;;;;;;0.47;0.32;;;;;;;;;;5012438;28;20542;-76
2022/04/08 13:50:16;;;;;;;0.35;0.20;;;;;;;;;;5012485;28;20029;-75
2022/04/08 13:52:41;;;;;;;0.00;0.00;;;;;;;;;;5014948;28;20038;-76
2022/04/08 13:55:07;;;;;;;1.65;0.55;;;;;;;;;;5013008;28;20164;-77
2022/04/08 13:57:32;;;;;;;0.52;0.30;;;;;;;;;;5013682;28;20034;-75
2022/04/08 14:00:00;;;;;;;0.15;0.15;;;;;;;;;;5010040;28;20029;-76
2022/04/08 14:02:26;;;;;;;0.10;0.10;;;;;;;;;;5008635;28;20113;-76
2022/04/08 14:04:51;;;;;;;0.10;0.00;;;;;;;;;;5010481;28;20172;-76
2022/04/08 14:07:21;;;;;;;0.20;0.20;;;;;;;;;;4996413;28;20034;-77
2022/04/08 14:09:47;;;;;;;0.17;0.17;;;;;;;;;;5008380;28;20022;-77
2022/04/08 14:12:14;;;;;;;0.80;0.28;;;;;;;;;;5012778;28;20040;-77
2022/04/08 14:14:41;;;;;;;0.15;0.15;;;;;;;;;;5015674;28;20032;-76
2022/04/08 14:17:06;;;;;;;0.95;0.47;;;;;;;;;;5013183;28;20033;-76
2022/04/08 14:19:32;;;;;;;41.50;0.80;;;;;;;;;;5012263;28;20025;-77
2022/04/08 14:22:00;;;;;;;0.20;0.20;;;;;;;;;;5008193;28;20305;-76
2022/04/08 14:24:26;;;;;;;1.13;0.32;;;;;;;;;;5014733;28;20026;-76
2022/04/08 14:26:52;;;;;;;0.00;0.00;;;;;;;;;;5012413;28;20414;-76
2022/04/08 14:29:17;;;;;;;0.10;0.10;;;;;;;;;;5014489;28;20025;-76
2022/04/08 14:31:43;;;;;;;0.17;0.17;;;;;;;;;;5008344;28;20041;-77
2022/04/08 14:34:09;;;;;;;0.30;0.30;;;;;;;;;;5028376;28;20077;-78
2022/04/08 14:36:37;;;;;;;0.05;0.05;;;;;;;;;;5011668;28;20022;-76
2022/04/08 14:39:03;;;;;;;0.10;0.10;;;;;;;;;;5013138;28;20026;-77
2022/04/08 14:41:28;;;;;;;0.60;0.60;;;;;;;;;;5013088;28;20024;-76
2022/04/08 14:43:57;;;;;;;0.10;0.10;;;;;;;;;;5014276;28;20033;-76